Aérodrome :
LOGIN :

S'inscrire | Disclaimer

   EN    FR    IT 

 










Légende :    VFR   VFR Marginal   IFR   IFR Intensif   IFR Très Intensif
Visi : 
Plafond : 
>= 8 km
>= 3000ft
5 à 8 km
1000 à 3000 ft
1500m à 5 km
500 à 1000 ft
800 à 1500m
200 à 500 ft
< 800m
< 200 ft
Symboles :   Orages  Brouillard  Fortes neiges  Fortes précipitations  Vent > 20 kt
SIGMETs :   Divers  Orages  Givrage  Turbulence  Onde Orograph.  Cendres Volcan.







- Altitude de l'aérodrome : 935 ft


EBFS - Florennes

DERNIER METAR :
  • 171125Z AUTO 26007KT 2100 BR OVC002/// 01/00 Q1024 AMB

METARs EXPIRÉS :
  • 171055Z AUTO 26008KT 2600 BR BKN002/// OVC013/// 01/00 Q1024 AMB
  • 171037Z AUTO 26008KT 2900 BR BKN002/// OVC012/// 01/00 Q1024 AMB
  • 171025Z AUTO 26008KT 3100 BR BKN003/// 01/00 Q1024 YLO
  • 171013Z AUTO 26007KT 2800 BR BKN002/// OVC005/// 01/00 Q1024 AMB
  • 170955Z AUTO 26008KT 3100 BR BKN003/// OVC006/// 01/M00 Q1024 YLO
  • 170925Z AUTO 26008KT 3200 BR SCT003/// OVC005/// 01/M00 Q1024 YLO
  • 170909Z AUTO 26008KT 3200 -RASN SCT003/// BKN005/// OVC007/// 01/M00 Q1024 YLO
  • 170855Z AUTO 26008KT 3200 BR SCT003/// BKN007/// BKN009/// 01/M00 Q1024 YLO

Prévision TAF périmée.
Pas de NOTAMs connus pour ce terrain.



MET'MAP, la Météo Aéronautique d'un coup d'oeil ! - Copyright ORBIFLY Décembre 2007 - Disclaimer

ORBIFLY MET'MAP TEAM :

Programmation & Développement : Alexandra Zaïnal
Conception & Développement : Baudouin d'Aumeries
Co-Programmation & Développement : Marc-Olivier Méhu
Soutien technique & logistique : Manuel Goepfert

Contact : metmap@orbifly.com




SOURCES & CREDITS :

   NOAA